createdAt,value
2023-05-11T00:00:17.147Z,1001.13
2023-05-11T00:01:16.892Z,1001.15
2023-05-11T00:02:16.907Z,1001.15
2023-05-11T00:03:17.017Z,1001.18
2023-05-11T00:04:16.873Z,1001.17
2023-05-11T00:05:16.822Z,1001.14
2023-05-11T00:06:16.792Z,1001.12
2023-05-11T00:07:16.830Z,1001.13
2023-05-11T00:08:17.331Z,1001.13
2023-05-11T00:09:16.772Z,1001.12
2023-05-11T00:10:16.970Z,1001.12
2023-05-11T00:11:16.791Z,1001.23
2023-05-11T00:12:16.749Z,1001.22
2023-05-11T00:13:16.773Z,1001.15
2023-05-11T00:14:16.707Z,1001.15
2023-05-11T00:15:16.726Z,1001.19
2023-05-11T00:16:16.786Z,1001.15
2023-05-11T00:17:16.750Z,1001.21
2023-05-11T00:18:16.712Z,1001.17
2023-05-11T00:19:16.658Z,1001.21
2023-05-11T00:20:16.883Z,1001.17
2023-05-11T00:21:16.632Z,1001.16
2023-05-11T00:22:16.626Z,1001.17
2023-05-11T00:23:16.667Z,1001.19
2023-05-11T00:24:16.575Z,1001.20
2023-05-11T00:25:16.591Z,1001.20
2023-05-11T00:26:16.585Z,1001.13
2023-05-11T00:27:16.581Z,1001.12
2023-05-11T00:28:16.561Z,1001.17
2023-05-11T00:29:16.553Z,1001.21
2023-05-11T00:30:16.785Z,1001.17
2023-05-11T00:31:16.585Z,1001.15
2023-05-11T00:32:16.500Z,1001.15
2023-05-11T00:33:16.507Z,1001.15
2023-05-11T00:34:16.474Z,1001.18
2023-05-11T00:35:16.537Z,1001.11
2023-05-11T00:36:16.477Z,1001.14
2023-05-11T00:37:16.452Z,1001.17
2023-05-11T00:38:16.439Z,1001.20
2023-05-11T00:39:16.393Z,1001.24
2023-05-11T00:40:16.670Z,1001.24
2023-05-11T00:41:16.458Z,1001.25
2023-05-11T00:42:16.397Z,1001.19
2023-05-11T00:43:16.395Z,1001.20
2023-05-11T00:44:16.344Z,1001.24
2023-05-11T00:45:16.315Z,1001.14
2023-05-11T00:46:16.379Z,1001.19
2023-05-11T00:47:16.336Z,1001.13
2023-05-11T00:48:16.398Z,1001.17
2023-05-11T00:49:16.294Z,1001.17
2023-05-11T00:50:16.399Z,1001.20
2023-05-11T00:51:16.253Z,1001.17
2023-05-11T00:52:16.337Z,1001.15
2023-05-11T00:53:16.244Z,1001.13
2023-05-11T00:54:16.226Z,1001.12
2023-05-11T00:55:16.205Z,1001.18
2023-05-11T00:56:16.226Z,1001.17
2023-05-11T00:57:16.247Z,1001.13
2023-05-11T00:58:16.202Z,1001.14
2023-05-11T00:59:16.152Z,1001.11
2023-05-11T01:00:16.229Z,1001.11
2023-05-11T01:01:16.379Z,1001.10
2023-05-11T01:02:16.201Z,1001.15
2023-05-11T01:03:16.160Z,1001.20
2023-05-11T01:04:16.103Z,1001.11
2023-05-11T01:05:16.083Z,1001.20
2023-05-11T01:06:16.137Z,1001.17
2023-05-11T01:07:16.096Z,1001.16
2023-05-11T01:08:16.059Z,1001.18
2023-05-11T01:09:16.076Z,1001.20
2023-05-11T01:10:16.239Z,1001.15
2023-05-11T01:11:16.039Z,1001.18
2023-05-11T01:12:16.042Z,1001.15
2023-05-11T01:13:16.020Z,1001.13
2023-05-11T01:14:16.019Z,1001.17
2023-05-11T01:15:15.999Z,1001.15
2023-05-11T01:16:16.030Z,1001.13
2023-05-11T01:17:15.963Z,1001.20
2023-05-11T01:18:15.966Z,1001.19
2023-05-11T01:19:15.963Z,1001.15
2023-05-11T01:20:16.036Z,1001.17
2023-05-11T01:21:15.964Z,1001.15
2023-05-11T01:22:15.938Z,1001.17
2023-05-11T01:23:15.897Z,1001.20
2023-05-11T01:24:15.901Z,1001.18
2023-05-11T01:25:15.872Z,1001.22
2023-05-11T01:26:15.854Z,1001.14
2023-05-11T01:27:15.829Z,1001.11
2023-05-11T01:28:15.869Z,1001.17
2023-05-11T01:29:15.829Z,1001.11
2023-05-11T01:30:15.903Z,1001.15
2023-05-11T01:31:15.798Z,1001.12
2023-05-11T01:32:15.879Z,1001.12
2023-05-11T01:33:15.822Z,1001.14
2023-05-11T01:34:15.778Z,1001.13
2023-05-11T01:35:15.734Z,1001.15
2023-05-11T01:36:15.781Z,1001.12
2023-05-11T01:37:15.746Z,1001.12
2023-05-11T01:38:15.720Z,1001.14
2023-05-11T01:39:15.697Z,1001.09
2023-05-11T01:40:15.918Z,1001.13
2023-05-11T01:41:15.686Z,1001.15
2023-05-11T01:42:15.661Z,1001.18
2023-05-11T01:43:15.680Z,1001.20
2023-05-11T01:44:15.675Z,1001.20
2023-05-11T01:45:15.635Z,1001.16
2023-05-11T01:46:15.669Z,1001.23
2023-05-11T01:47:15.654Z,1001.17
2023-05-11T01:48:15.585Z,1001.18
2023-05-11T01:49:15.569Z,1001.21
2023-05-11T01:50:15.614Z,1001.19
2023-05-11T01:51:15.542Z,1001.20
2023-05-11T01:52:15.566Z,1001.24
2023-05-11T01:53:15.560Z,1001.22
2023-05-11T01:54:15.507Z,1001.24
2023-05-11T01:55:15.530Z,1001.22
2023-05-11T01:56:15.480Z,1001.27
2023-05-11T01:57:15.489Z,1001.22
2023-05-11T01:58:15.524Z,1001.27
2023-05-11T01:59:15.463Z,1001.25
2023-05-11T02:00:15.572Z,1001.22
2023-05-11T02:01:15.541Z,1001.27
2023-05-11T02:02:15.484Z,1001.30
2023-05-11T02:03:15.521Z,1001.28
2023-05-11T02:04:15.432Z,1001.31
2023-05-11T02:05:15.396Z,1001.30
2023-05-11T02:06:15.398Z,1001.29
2023-05-11T02:07:18.828Z,1001.32
2023-05-11T02:08:15.358Z,1001.31
2023-05-11T02:09:15.340Z,1001.33
2023-05-11T02:10:15.514Z,1001.31
2023-05-11T02:11:15.320Z,1001.28
2023-05-11T02:12:15.358Z,1001.28
2023-05-11T02:13:15.275Z,1001.32
2023-05-11T02:14:15.321Z,1001.33
2023-05-11T02:15:15.253Z,1001.33
2023-05-11T02:16:15.290Z,1001.31
2023-05-11T02:17:15.254Z,1001.34
2023-05-11T02:18:15.264Z,1001.35
2023-05-11T02:19:15.217Z,1001.37
2023-05-11T02:20:15.226Z,1001.33
2023-05-11T02:21:15.208Z,1001.35
2023-05-11T02:22:15.239Z,1001.33
2023-05-11T02:23:15.189Z,1001.32
2023-05-11T02:24:15.158Z,1001.33
2023-05-11T02:25:15.130Z,1001.32
2023-05-11T02:26:15.187Z,1001.31
2023-05-11T02:27:15.138Z,1001.32
2023-05-11T02:28:15.137Z,1001.30
2023-05-11T02:29:15.093Z,1001.29
2023-05-11T02:30:15.138Z,1001.33
2023-05-11T02:31:15.165Z,1001.31
2023-05-11T02:32:15.063Z,1001.29
2023-05-11T02:33:15.076Z,1001.35
2023-05-11T02:34:15.061Z,1001.31
2023-05-11T02:35:15.032Z,1001.33
2023-05-11T02:36:15.065Z,1001.35
2023-05-11T02:37:15.015Z,1001.35
2023-05-11T02:38:15.019Z,1001.34
2023-05-11T02:39:14.988Z,1001.40
2023-05-11T02:40:14.988Z,1001.33
2023-05-11T02:41:14.963Z,1001.38
2023-05-11T02:42:14.984Z,1001.40
2023-05-11T02:43:14.919Z,1001.35
2023-05-11T02:44:14.951Z,1001.37
2023-05-11T02:45:14.909Z,1001.39
2023-05-11T02:46:14.957Z,1001.36
2023-05-11T02:47:14.904Z,1001.38
2023-05-11T02:48:14.895Z,1001.41
2023-05-11T02:49:14.898Z,1001.37
2023-05-11T02:50:14.921Z,1001.33
2023-05-11T02:51:14.840Z,1001.36
2023-05-11T02:52:14.846Z,1001.32
2023-05-11T02:53:14.819Z,1001.33
2023-05-11T02:54:14.836Z,1001.35
2023-05-11T02:55:14.778Z,1001.35
2023-05-11T02:56:14.772Z,1001.40
2023-05-11T02:57:14.773Z,1001.36
2023-05-11T02:58:14.813Z,1001.37
2023-05-11T02:59:14.797Z,1001.38
2023-05-11T03:00:14.760Z,1001.42
2023-05-11T03:01:14.823Z,1001.43
2023-05-11T03:02:14.764Z,1001.42
2023-05-11T03:03:14.795Z,1001.40
2023-05-11T03:04:14.674Z,1001.40
2023-05-11T03:05:14.701Z,1001.38
2023-05-11T03:06:14.676Z,1001.43
2023-05-11T03:07:14.701Z,1001.46
2023-05-11T03:08:14.654Z,1001.37
2023-05-11T03:09:14.636Z,1001.40
2023-05-11T03:10:14.659Z,1001.47
2023-05-11T03:11:14.616Z,1001.41
2023-05-11T03:12:14.610Z,1001.39
2023-05-11T03:13:14.550Z,1001.44
2023-05-11T03:14:14.582Z,1001.44
2023-05-11T03:15:14.580Z,1001.47
2023-05-11T03:16:14.638Z,1001.46
2023-05-11T03:17:14.536Z,1001.41
2023-05-11T03:18:14.528Z,1001.39
2023-05-11T03:19:14.489Z,1001.39
2023-05-11T03:20:14.525Z,1001.41
2023-05-11T03:21:14.485Z,1001.40
2023-05-11T03:22:14.509Z,1001.38
2023-05-11T03:23:14.450Z,1001.38
2023-05-11T03:24:14.474Z,1001.38
2023-05-11T03:25:14.444Z,1001.38
2023-05-11T03:26:14.442Z,1001.38
2023-05-11T03:27:14.395Z,1001.36
2023-05-11T03:28:14.396Z,1001.35
2023-05-11T03:29:14.440Z,1001.35
2023-05-11T03:30:14.420Z,1001.33
2023-05-11T03:31:14.384Z,1001.32
2023-05-11T03:32:14.401Z,1001.34
2023-05-11T03:33:14.410Z,1001.38
2023-05-11T03:34:14.319Z,1001.34
2023-05-11T03:35:14.317Z,1001.36
2023-05-11T03:36:14.324Z,1001.33
2023-05-11T03:37:14.309Z,1001.40
2023-05-11T03:38:14.298Z,1001.33
2023-05-11T03:39:14.252Z,1001.33
2023-05-11T03:40:14.255Z,1001.31
2023-05-11T03:41:14.225Z,1001.35
2023-05-11T03:42:14.246Z,1001.30
2023-05-11T03:43:14.239Z,1001.33
2023-05-11T03:44:14.241Z,1001.29
2023-05-11T03:45:14.175Z,1001.33
2023-05-11T03:46:14.234Z,1001.28
2023-05-11T03:47:14.204Z,1001.26
2023-05-11T03:48:14.190Z,1001.27
2023-05-11T03:49:14.156Z,1001.24
2023-05-11T03:50:14.133Z,1001.25
2023-05-11T03:51:14.109Z,1001.25
2023-05-11T03:52:14.143Z,1001.26
2023-05-11T03:53:14.105Z,1001.26
2023-05-11T03:54:14.105Z,1001.24
2023-05-11T03:55:14.063Z,1001.23
2023-05-11T03:56:14.082Z,1001.24
2023-05-11T03:57:14.070Z,1001.26
2023-05-11T03:58:14.062Z,1001.24
2023-05-11T03:59:14.010Z,1001.25
2023-05-11T04:00:14.029Z,1001.25
2023-05-11T04:01:13.980Z,1001.24
2023-05-11T04:02:14.025Z,1001.24
2023-05-11T04:03:14.108Z,1001.23
2023-05-11T04:04:14.034Z,1001.24
2023-05-11T04:05:13.935Z,1001.27
2023-05-11T04:06:13.975Z,1001.26
2023-05-11T04:07:13.944Z,1001.26
2023-05-11T04:08:13.936Z,1001.29
2023-05-11T04:09:13.883Z,1001.30
2023-05-11T04:10:13.931Z,1001.26
2023-05-11T04:11:13.864Z,1001.32
2023-05-11T04:12:13.888Z,1001.31
2023-05-11T04:13:13.850Z,1001.32
2023-05-11T04:14:13.859Z,1001.27
2023-05-11T04:15:13.848Z,1001.30
2023-05-11T04:16:13.889Z,1001.26
2023-05-11T04:17:13.788Z,1001.30
2023-05-11T04:18:13.809Z,1001.28
2023-05-11T04:19:13.830Z,1001.25
2023-05-11T04:20:13.759Z,1001.27
2023-05-11T04:21:13.754Z,1001.30
2023-05-11T04:22:13.734Z,1001.30
2023-05-11T04:23:13.775Z,1001.36
2023-05-11T04:24:13.759Z,1001.26
2023-05-11T04:25:13.716Z,1001.31
2023-05-11T04:26:13.746Z,1001.31
2023-05-11T04:27:13.665Z,1001.30
2023-05-11T04:28:13.714Z,1001.34
2023-05-11T04:29:13.650Z,1001.34
2023-05-11T04:30:13.665Z,1001.35
2023-05-11T04:31:13.664Z,1001.33
2023-05-11T04:32:13.710Z,1001.35
2023-05-11T04:33:13.608Z,1001.31
2023-05-11T04:34:13.630Z,1001.39
2023-05-11T04:35:13.599Z,1001.37
2023-05-11T04:36:13.621Z,1001.35
2023-05-11T04:37:13.572Z,1001.36
2023-05-11T04:38:13.574Z,1001.38
2023-05-11T04:39:13.548Z,1001.34
2023-05-11T04:40:13.539Z,1001.30
2023-05-11T04:41:13.539Z,1001.30
2023-05-11T04:42:13.499Z,1001.35
2023-05-11T04:43:13.493Z,1001.37
2023-05-11T04:44:13.463Z,1001.40
2023-05-11T04:45:13.511Z,1001.39
2023-05-11T04:46:13.493Z,1001.40
2023-05-11T04:47:13.461Z,1001.37
2023-05-11T04:48:13.516Z,1001.40
2023-05-11T04:49:13.470Z,1001.38
2023-05-11T04:50:13.390Z,1001.40
2023-05-11T04:51:13.382Z,1001.39
2023-05-11T04:52:13.365Z,1001.42
2023-05-11T04:53:13.425Z,1001.41
2023-05-11T04:54:13.374Z,1001.39
2023-05-11T04:55:13.336Z,1001.44
2023-05-11T04:56:13.333Z,1001.46
2023-05-11T04:57:13.417Z,1001.44
2023-05-11T04:58:13.284Z,1001.50
2023-05-11T04:59:13.321Z,1001.45
2023-05-11T05:00:13.340Z,1001.49
2023-05-11T05:01:13.362Z,1001.50
2023-05-11T05:02:13.271Z,1001.48
2023-05-11T05:03:13.268Z,1001.48
2023-05-11T05:04:13.245Z,1001.51
2023-05-11T05:05:13.223Z,1001.49
2023-05-11T05:06:13.222Z,1001.49
2023-05-11T05:07:13.243Z,1001.53
2023-05-11T05:08:13.187Z,1001.54
2023-05-11T05:09:13.209Z,1001.52
2023-05-11T05:10:13.150Z,1001.57
2023-05-11T05:11:13.171Z,1001.55
2023-05-11T05:12:13.135Z,1001.62
2023-05-11T05:13:13.151Z,1001.58
2023-05-11T05:14:13.174Z,1001.61
2023-05-11T05:15:13.114Z,1001.67
2023-05-11T05:16:14.009Z,1001.61
2023-05-11T05:17:13.153Z,1001.66
2023-05-11T05:18:13.134Z,1001.64
2023-05-11T05:19:13.138Z,1001.63
2023-05-11T05:20:13.071Z,1001.66
2023-05-11T05:21:13.055Z,1001.67
2023-05-11T05:22:13.009Z,1001.66
2023-05-11T05:23:13.070Z,1001.67
2023-05-11T05:24:12.972Z,1001.68
2023-05-11T05:25:12.979Z,1001.66
2023-05-11T05:26:12.956Z,1001.69
2023-05-11T05:27:13.058Z,1001.72
2023-05-11T05:28:12.932Z,1001.67
2023-05-11T05:29:12.933Z,1001.70
2023-05-11T05:30:12.938Z,1001.67
2023-05-11T05:31:12.944Z,1001.69
2023-05-11T05:32:12.889Z,1001.73
2023-05-11T05:33:12.958Z,1001.70
2023-05-11T05:34:15.511Z,1001.74
2023-05-11T05:35:12.882Z,1001.72
2023-05-11T05:36:12.873Z,1001.79
2023-05-11T05:37:12.857Z,1001.74
2023-05-11T05:38:12.839Z,1001.76
2023-05-11T05:39:12.831Z,1001.78
2023-05-11T05:40:12.842Z,1001.79
2023-05-11T05:41:12.810Z,1001.80
2023-05-11T05:42:12.759Z,1001.76
2023-05-11T05:43:12.785Z,1001.80
2023-05-11T05:44:12.750Z,1001.82
2023-05-11T05:45:14.730Z,1001.85
2023-05-11T05:46:12.781Z,1001.79
2023-05-11T05:47:12.729Z,1001.85
2023-05-11T05:48:12.700Z,1001.83
2023-05-11T05:49:12.750Z,1001.83
2023-05-11T05:50:12.668Z,1001.86
2023-05-11T05:51:12.699Z,1001.88
2023-05-11T05:52:12.683Z,1001.90
2023-05-11T05:53:12.648Z,1001.87
2023-05-11T05:54:12.676Z,1001.90
2023-05-11T05:55:12.625Z,1001.93
2023-05-11T05:56:12.611Z,1001.98
2023-05-11T05:57:13.765Z,1001.93
2023-05-11T05:58:12.592Z,1001.96
2023-05-11T05:59:12.586Z,1001.98
2023-05-11T06:00:12.556Z,1001.97
2023-05-11T06:01:12.561Z,1002.00
2023-05-11T06:02:12.573Z,1001.99
2023-05-11T06:03:12.589Z,1001.96
2023-05-11T06:04:12.623Z,1001.95
2023-05-11T06:05:12.591Z,1002.01
2023-05-11T06:06:12.493Z,1001.98
2023-05-11T06:07:12.470Z,1002.02
2023-05-11T06:08:12.443Z,1002.00
2023-05-11T06:09:12.467Z,1002.03
2023-05-11T06:10:12.449Z,1002.03
2023-05-11T06:11:12.455Z,1002.02
2023-05-11T06:12:12.459Z,1002.01
2023-05-11T06:13:12.421Z,1002.05
2023-05-11T06:14:12.404Z,1002.06
2023-05-11T06:15:12.398Z,1002.10
2023-05-11T06:16:12.464Z,1002.07
2023-05-11T06:17:12.366Z,1002.08
2023-05-11T06:18:12.402Z,1002.07
2023-05-11T06:19:12.355Z,1002.06
2023-05-11T06:20:12.337Z,1002.04
2023-05-11T06:21:12.372Z,1002.07
2023-05-11T06:22:12.303Z,1002.08
2023-05-11T06:23:12.280Z,1002.09
2023-05-11T06:24:12.282Z,1002.09
2023-05-11T06:25:12.302Z,1002.08
2023-05-11T06:26:12.246Z,1002.09
2023-05-11T06:27:12.229Z,1002.07
2023-05-11T06:28:12.255Z,1002.07
2023-05-11T06:29:12.267Z,1002.08
2023-05-11T06:30:12.198Z,1002.05
2023-05-11T06:31:12.199Z,1002.06
2023-05-11T06:32:12.150Z,1002.08
2023-05-11T06:33:12.157Z,1002.06
2023-05-11T06:34:12.191Z,1002.05
2023-05-11T06:35:12.157Z,1002.06
2023-05-11T06:36:12.178Z,1002.03
2023-05-11T06:37:12.099Z,1002.02
2023-05-11T06:38:12.092Z,1002.03
2023-05-11T06:39:12.166Z,1001.99
2023-05-11T06:40:12.095Z,1002.00
2023-05-11T06:41:12.091Z,1002.02
2023-05-11T06:42:12.054Z,1002.03
2023-05-11T06:43:12.036Z,1002.02
2023-05-11T06:44:12.008Z,1002.03
2023-05-11T06:45:12.125Z,1002.03
2023-05-11T06:46:12.029Z,1002.02
2023-05-11T06:47:12.034Z,1002.03
2023-05-11T06:48:12.048Z,1002.05
2023-05-11T06:49:11.968Z,1002.07
2023-05-11T06:50:11.966Z,1002.06
2023-05-11T06:51:12.006Z,1002.08
2023-05-11T06:52:11.915Z,1002.05
2023-05-11T06:53:11.953Z,1002.08
2023-05-11T06:54:11.893Z,1002.06
2023-05-11T06:55:11.922Z,1002.04
2023-05-11T06:56:11.912Z,1002.04
2023-05-11T06:57:14.282Z,1002.05
2023-05-11T06:58:11.848Z,1002.10
2023-05-11T06:59:11.895Z,1002.06
2023-05-11T07:00:11.862Z,1002.05
2023-05-11T07:01:11.866Z,1002.07
2023-05-11T07:02:11.823Z,1002.06
2023-05-11T07:03:12.084Z,1002.09
2023-05-11T07:04:11.834Z,1002.11
2023-05-11T07:05:11.770Z,1002.07
2023-05-11T07:06:11.797Z,1002.09
2023-05-11T07:07:11.779Z,1002.12
2023-05-11T07:08:11.720Z,1002.13
2023-05-11T07:09:11.725Z,1002.16
2023-05-11T07:10:11.725Z,1002.11
2023-05-11T07:11:11.778Z,1002.10
2023-05-11T07:12:11.716Z,1002.11
2023-05-11T07:13:11.683Z,1002.10
2023-05-11T07:14:11.660Z,1002.13
2023-05-11T07:15:11.669Z,1002.15
2023-05-11T07:16:11.647Z,1002.13
2023-05-11T07:17:11.667Z,1002.16
2023-05-11T07:18:11.654Z,1002.12
2023-05-11T07:19:11.811Z,1002.12
2023-05-11T07:20:13.328Z,1002.19
2023-05-11T07:21:11.610Z,1002.16
2023-05-11T07:22:13.437Z,1002.17
2023-05-11T07:23:11.558Z,1002.14
2023-05-11T07:24:11.561Z,1002.14
2023-05-11T07:25:11.574Z,1002.07
2023-05-11T07:26:13.279Z,1002.08
2023-05-11T07:27:11.555Z,1002.10
2023-05-11T07:28:11.525Z,1002.09
2023-05-11T07:29:11.490Z,1002.10
2023-05-11T07:30:11.498Z,1002.14
2023-05-11T07:31:11.579Z,1002.10
2023-05-11T07:32:11.444Z,1002.07
2023-05-11T07:33:11.488Z,1002.13
2023-05-11T07:34:11.465Z,1002.14
2023-05-11T07:35:11.433Z,1002.14
2023-05-11T07:36:11.413Z,1002.12
2023-05-11T07:37:11.397Z,1002.15
2023-05-11T07:38:11.395Z,1002.13
2023-05-11T07:39:12.405Z,1002.13
2023-05-11T07:40:11.369Z,1002.15
2023-05-11T07:41:12.605Z,1002.15
2023-05-11T07:42:11.370Z,1002.18
2023-05-11T07:43:11.344Z,1002.14
2023-05-11T07:44:11.328Z,1002.12
2023-05-11T07:45:11.316Z,1002.13
2023-05-11T07:46:11.281Z,1002.14
2023-05-11T07:47:11.306Z,1002.11
2023-05-11T07:48:11.359Z,1002.16
2023-05-11T07:49:18.606Z,1002.13
2023-05-11T07:50:12.260Z,1002.07
2023-05-11T07:51:11.251Z,1002.11
2023-05-11T07:52:11.306Z,1002.07
2023-05-11T07:53:11.266Z,1002.06
2023-05-11T07:54:11.195Z,1002.08
2023-05-11T07:55:11.182Z,1002.05
2023-05-11T07:56:11.192Z,1002.03
2023-05-11T07:57:11.170Z,1002.08
2023-05-11T07:58:11.213Z,1002.01
2023-05-11T07:59:11.152Z,1002.05
2023-05-11T08:00:11.334Z,1002.07
2023-05-11T08:01:11.189Z,1002.10
2023-05-11T08:02:13.149Z,1002.00
2023-05-11T08:03:11.122Z,1002.02
2023-05-11T08:04:11.085Z,1002.00
2023-05-11T08:05:11.134Z,1002.02
2023-05-11T08:06:11.121Z,1002.02
2023-05-11T08:07:11.092Z,1001.99
2023-05-11T08:08:11.022Z,1002.03
2023-05-11T08:09:11.071Z,1001.98
2023-05-11T08:10:11.112Z,1001.99
2023-05-11T08:11:11.035Z,1002.09
2023-05-11T08:12:10.986Z,1002.07
2023-05-11T08:13:10.975Z,1002.03
2023-05-11T08:14:10.966Z,1002.06
2023-05-11T08:15:10.984Z,1002.10
2023-05-11T08:16:11.016Z,1002.06
2023-05-11T08:17:10.968Z,1002.10
2023-05-11T08:18:10.982Z,1002.07
2023-05-11T08:19:10.923Z,1002.08
2023-05-11T08:20:10.912Z,1002.12
2023-05-11T08:21:10.912Z,1002.10
2023-05-11T08:22:10.859Z,1002.08
2023-05-11T08:23:10.938Z,1002.08
2023-05-11T08:24:10.843Z,1002.07
2023-05-11T08:25:10.860Z,1002.11
2023-05-11T08:26:10.860Z,1002.05
2023-05-11T08:27:10.842Z,1002.08
2023-05-11T08:28:10.780Z,1002.08
2023-05-11T08:29:10.818Z,1002.05
2023-05-11T08:30:11.839Z,1002.07
2023-05-11T08:31:10.827Z,1002.05
2023-05-11T08:32:10.806Z,1002.10
2023-05-11T08:33:29.083Z,1002.07
2023-05-11T08:34:19.120Z,1002.08
2023-05-11T08:35:11.798Z,1002.08
2023-05-11T08:36:12.441Z,1002.11
2023-05-11T08:37:10.719Z,1002.07
2023-05-11T08:38:10.667Z,1002.10
2023-05-11T08:39:10.664Z,1002.06
2023-05-11T08:40:12.531Z,1002.08
2023-05-11T08:41:10.678Z,1002.09
2023-05-11T08:42:10.816Z,1002.15
2023-05-11T08:43:10.629Z,1002.09
2023-05-11T08:44:10.609Z,1002.09
2023-05-11T08:45:10.602Z,1002.05
2023-05-11T08:46:10.619Z,1002.06
2023-05-11T08:47:22.621Z,1002.07
2023-05-11T08:48:11.578Z,1002.09
2023-05-11T08:49:10.571Z,1002.08
2023-05-11T08:50:10.560Z,1002.10
2023-05-11T08:51:10.550Z,1002.09
2023-05-11T08:52:10.493Z,1002.13
2023-05-11T08:53:10.522Z,1002.14
2023-05-11T08:54:10.512Z,1002.21
2023-05-11T08:55:10.525Z,1002.14
2023-05-11T08:56:10.448Z,1002.20
2023-05-11T08:57:10.477Z,1002.21
2023-05-11T08:58:10.427Z,1002.19
2023-05-11T08:59:10.428Z,1002.19
2023-05-11T09:00:10.500Z,1002.17
2023-05-11T09:01:10.415Z,1002.18
2023-05-11T09:02:10.420Z,1002.19
2023-05-11T09:03:10.442Z,1002.15
2023-05-11T09:04:10.395Z,1002.17
2023-05-11T09:05:10.382Z,1002.17
2023-05-11T09:06:10.348Z,1002.20
2023-05-11T09:07:10.392Z,1002.17
2023-05-11T09:08:10.331Z,1002.17
2023-05-11T09:09:10.298Z,1002.21
2023-05-11T09:10:12.921Z,1002.27
2023-05-11T09:11:10.286Z,1002.21
2023-05-11T09:12:10.301Z,1002.22
2023-05-11T09:13:10.294Z,1002.19
2023-05-11T09:14:10.279Z,1002.20
2023-05-11T09:15:10.303Z,1002.20
2023-05-11T09:16:23.488Z,1002.19
2023-05-11T09:17:11.260Z,1002.20
2023-05-11T09:18:10.239Z,1002.17
2023-05-11T09:19:10.206Z,1002.23
2023-05-11T09:20:10.210Z,1002.17
2023-05-11T09:21:10.186Z,1002.21
2023-05-11T09:22:10.187Z,1002.19
2023-05-11T09:23:10.123Z,1002.17
2023-05-11T09:24:10.173Z,1002.18
2023-05-11T09:25:10.148Z,1002.17
2023-05-11T09:26:10.108Z,1002.20
2023-05-11T09:27:10.161Z,1002.17
2023-05-11T09:29:11.080Z,1002.19
2023-05-11T09:30:10.085Z,1002.15
2023-05-11T09:31:10.079Z,1002.16
2023-05-11T09:32:10.040Z,1002.15
2023-05-11T09:33:10.161Z,1002.12
2023-05-11T09:34:10.048Z,1002.10
2023-05-11T09:35:09.992Z,1002.12
2023-05-11T09:36:10.021Z,1002.09
2023-05-11T09:37:09.996Z,1002.08
2023-05-11T09:38:10.046Z,1002.12
2023-05-11T09:39:15.418Z,1002.15
2023-05-11T09:40:26.419Z,1002.14
2023-05-11T09:41:10.997Z,1002.10
2023-05-11T09:42:09.925Z,1002.08
2023-05-11T09:43:09.901Z,1002.15
2023-05-11T09:44:09.922Z,1002.10
2023-05-11T09:45:09.905Z,1002.10
2023-05-11T09:46:09.976Z,1002.12
2023-05-11T09:47:09.883Z,1002.13
2023-05-11T09:48:09.886Z,1002.13
2023-05-11T09:49:09.856Z,1002.16
2023-05-11T09:50:09.830Z,1002.14
2023-05-11T09:51:09.872Z,1002.13
2023-05-11T09:52:09.827Z,1002.15
2023-05-11T09:53:09.778Z,1002.15
2023-05-11T09:54:09.808Z,1002.12
2023-05-11T09:55:09.791Z,1002.12
2023-05-11T09:56:11.456Z,1002.11
2023-05-11T09:57:09.764Z,1002.15
2023-05-11T09:58:09.744Z,1002.14
2023-05-11T09:59:09.733Z,1002.12
2023-05-11T10:00:09.716Z,1002.19
2023-05-11T10:01:09.737Z,1002.15
2023-05-11T10:02:09.754Z,1002.14
2023-05-11T10:03:09.800Z,1002.14
2023-05-11T10:04:22.328Z,1002.15
2023-05-11T10:05:10.645Z,1002.14
2023-05-11T10:06:09.678Z,1002.10
2023-05-11T10:07:09.640Z,1002.11
2023-05-11T10:08:09.687Z,1002.14
2023-05-11T10:09:09.608Z,1002.11
2023-05-11T10:10:09.618Z,1002.08
2023-05-11T10:11:09.570Z,1002.15
2023-05-11T10:12:09.612Z,1002.13
2023-05-11T10:13:09.596Z,1002.10
2023-05-11T10:14:09.554Z,1002.14
2023-05-11T10:15:09.557Z,1002.13
2023-05-11T10:16:09.719Z,1002.11
2023-05-11T10:17:09.551Z,1002.16
2023-05-11T10:18:09.592Z,1002.11
2023-05-11T10:19:09.658Z,1002.12
2023-05-11T10:20:09.522Z,1002.12
2023-05-11T10:21:09.463Z,1002.14
2023-05-11T10:22:09.521Z,1002.11
2023-05-11T10:23:09.454Z,1002.11
2023-05-11T10:24:09.428Z,1002.11
2023-05-11T10:25:09.456Z,1002.10
2023-05-11T10:26:09.440Z,1002.13
2023-05-11T10:27:09.424Z,1002.14
2023-05-11T10:28:09.380Z,1002.14
2023-05-11T10:29:09.395Z,1002.07
2023-05-11T10:30:09.472Z,1002.07
2023-05-11T10:31:09.402Z,1002.06
2023-05-11T10:32:09.336Z,1002.09
2023-05-11T10:33:09.378Z,1002.05
2023-05-11T10:34:09.336Z,1002.04
2023-05-11T10:35:09.323Z,1002.05
2023-05-11T10:36:09.340Z,1002.05
2023-05-11T10:37:09.267Z,1002.02
2023-05-11T10:38:09.288Z,1001.97
2023-05-11T10:39:09.280Z,1002.00
2023-05-11T10:40:09.234Z,1002.02
2023-05-11T10:41:09.208Z,1002.02
2023-05-11T10:42:09.255Z,1002.03
2023-05-11T10:43:09.191Z,1002.05
2023-05-11T10:44:09.245Z,1002.05
2023-05-11T10:45:09.170Z,1002.00
2023-05-11T10:46:09.212Z,1002.02
2023-05-11T10:47:09.170Z,1002.03
2023-05-11T10:48:09.224Z,1002.01
2023-05-11T10:49:09.116Z,1002.01
2023-05-11T10:50:09.162Z,1002.01
2023-05-11T10:51:09.101Z,1002.03
2023-05-11T10:52:09.152Z,1002.05
2023-05-11T10:53:09.094Z,1002.04
2023-05-11T10:54:09.091Z,1002.06
2023-05-11T10:55:09.046Z,1002.06
2023-05-11T10:56:09.058Z,1002.08
2023-05-11T10:57:09.081Z,1002.09
2023-05-11T10:58:09.015Z,1002.06
2023-05-11T10:59:09.003Z,1002.04
2023-05-11T11:00:09.073Z,1002.05
2023-05-11T11:01:09.070Z,1001.99
2023-05-11T11:02:09.001Z,1002.00
2023-05-11T11:03:09.018Z,1002.01
2023-05-11T11:04:08.950Z,1001.99
2023-05-11T11:05:08.976Z,1002.00
2023-05-11T11:06:09.227Z,1001.99
2023-05-11T11:07:08.938Z,1001.99
2023-05-11T11:08:08.959Z,1002.04
2023-05-11T11:09:08.920Z,1002.05
2023-05-11T11:10:08.879Z,1002.04
2023-05-11T11:11:08.854Z,1002.06
2023-05-11T11:12:09.023Z,1002.06
2023-05-11T11:13:08.854Z,1002.03
2023-05-11T11:14:08.917Z,1001.98
2023-05-11T11:15:08.834Z,1001.98
2023-05-11T11:16:08.839Z,1002.03
2023-05-11T11:17:08.848Z,1001.98
2023-05-11T11:18:08.848Z,1001.99
2023-05-11T11:19:08.918Z,1002.00
2023-05-11T11:20:08.864Z,1002.01
2023-05-11T11:21:08.784Z,1001.94
2023-05-11T11:22:08.747Z,1001.93
2023-05-11T11:23:08.757Z,1001.92
2023-05-11T11:24:08.743Z,1001.94
2023-05-11T11:25:08.701Z,1001.95
2023-05-11T11:26:08.698Z,1001.98
2023-05-11T11:27:08.694Z,1001.90
2023-05-11T11:28:08.725Z,1001.96
2023-05-11T11:29:08.679Z,1001.88
2023-05-11T11:30:08.673Z,1001.87
2023-05-11T11:31:08.734Z,1001.91
2023-05-11T11:32:08.648Z,1001.89
2023-05-11T11:33:08.697Z,1001.92
2023-05-11T11:34:08.624Z,1001.87
2023-05-11T11:35:08.616Z,1001.88
2023-05-11T11:36:08.624Z,1001.84
2023-05-11T11:37:08.571Z,1001.85
2023-05-11T11:38:08.590Z,1001.90
2023-05-11T11:39:08.569Z,1001.93
2023-05-11T11:40:14.786Z,1001.84
2023-05-11T11:41:09.536Z,1001.84
2023-05-11T11:42:08.557Z,1001.88
2023-05-11T11:43:08.509Z,1001.92
2023-05-11T11:44:08.510Z,1001.90
2023-05-11T11:45:08.459Z,1001.85
2023-05-11T11:46:08.519Z,1001.87
2023-05-11T11:47:08.476Z,1001.90
2023-05-11T11:48:08.508Z,1001.91
2023-05-11T11:49:08.508Z,1001.87
2023-05-11T11:50:08.462Z,1001.96
2023-05-11T11:51:08.492Z,1001.97
2023-05-11T11:52:08.389Z,1001.90
2023-05-11T11:53:08.385Z,1001.97
2023-05-11T11:54:08.363Z,1001.96
2023-05-11T11:55:08.377Z,1001.99
2023-05-11T11:56:08.377Z,1001.98
2023-05-11T11:57:08.336Z,1002.03
2023-05-11T11:58:08.332Z,1001.99
2023-05-11T11:59:08.319Z,1001.94
2023-05-11T12:00:08.317Z,1001.95
2023-05-11T12:01:08.288Z,1001.92
2023-05-11T12:02:08.288Z,1001.96
2023-05-11T12:03:08.326Z,1001.97
2023-05-11T12:04:08.405Z,1001.92
2023-05-11T12:05:08.341Z,1001.95
2023-05-11T12:06:08.254Z,1001.94